createdAt,value
2023-02-13T00:00:33.144Z,7.40
2023-02-13T00:02:59.924Z,7.30
2023-02-13T00:05:27.217Z,7.30
2023-02-13T00:07:53.964Z,7.50
2023-02-13T00:10:20.896Z,7.40
2023-02-13T00:12:47.612Z,7.30
2023-02-13T00:15:14.704Z,7.20
2023-02-13T00:17:41.805Z,7.40
2023-02-13T00:20:10.414Z,7.30
2023-02-13T00:22:38.143Z,7.10
2023-02-13T00:25:06.672Z,7.20
2023-02-13T00:27:34.060Z,7.00
2023-02-13T00:30:01.345Z,7.10
2023-02-13T00:32:28.117Z,7.00
2023-02-13T00:34:55.320Z,7.10
2023-02-13T00:37:22.094Z,7.10
2023-02-13T00:39:48.832Z,7.00
2023-02-13T00:42:15.991Z,6.90
2023-02-13T00:44:42.798Z,7.00
2023-02-13T00:47:09.740Z,7.00
2023-02-13T00:49:36.492Z,6.80
2023-02-13T00:52:03.305Z,6.80
2023-02-13T00:54:30.398Z,6.90
2023-02-13T00:56:57.127Z,6.90
2023-02-13T00:59:24.249Z,7.10
2023-02-13T01:01:51.056Z,7.20
2023-02-13T01:04:18.242Z,7.20
2023-02-13T01:06:45.045Z,7.10
2023-02-13T01:09:12.443Z,7.10
2023-02-13T01:11:39.262Z,7.20
2023-02-13T01:14:06.253Z,7.10
2023-02-13T01:16:33.469Z,7.20
2023-02-13T01:19:00.638Z,7.20
2023-02-13T01:21:27.405Z,7.30
2023-02-13T01:23:54.568Z,7.20
2023-02-13T01:26:25.247Z,7.10
2023-02-13T01:28:55.196Z,7.10
2023-02-13T01:31:22.443Z,7.10
2023-02-13T01:33:49.749Z,7.10
2023-02-13T01:36:17.131Z,7.30
2023-02-13T01:38:43.982Z,7.20
2023-02-13T01:41:11.569Z,7.20
2023-02-13T01:43:46.008Z,7.10
2023-02-13T01:46:16.114Z,7.20
2023-02-13T01:48:42.891Z,7.00
2023-02-13T01:51:15.161Z,7.00
2023-02-13T01:53:45.387Z,7.10
2023-02-13T01:56:35.518Z,7.20
2023-02-13T01:59:07.348Z,7.30
2023-02-13T02:01:35.204Z,7.50
2023-02-13T02:04:23.070Z,7.40
2023-02-13T02:06:57.960Z,7.40
2023-02-13T02:09:30.620Z,7.40
2023-02-13T02:12:12.449Z,7.30
2023-02-13T02:14:41.780Z,7.10
2023-02-13T02:17:09.476Z,7.20
2023-02-13T02:19:46.099Z,7.40
2023-02-13T02:22:25.192Z,7.40
2023-02-13T02:25:25.724Z,7.50
2023-02-13T02:28:26.676Z,7.30
2023-02-13T02:31:15.436Z,7.30
2023-02-13T02:34:21.335Z,7.30
2023-02-13T02:37:13.166Z,7.30
2023-02-13T02:40:19.934Z,7.30
2023-02-13T02:43:14.136Z,7.20
2023-02-13T02:46:15.722Z,7.30
2023-02-13T02:49:23.066Z,7.30
2023-02-13T02:52:51.546Z,7.30
2023-02-13T02:55:27.594Z,7.20
2023-02-13T02:58:22.775Z,7.30
2023-02-13T03:01:10.617Z,7.20
2023-02-13T03:03:56.593Z,7.40
2023-02-13T03:06:56.805Z,7.60
2023-02-13T03:09:50.088Z,7.60
2023-02-13T03:12:41.955Z,7.70
2023-02-13T03:15:10.177Z,7.70
2023-02-13T03:17:56.603Z,7.50
2023-02-13T03:20:50.973Z,7.50
2023-02-13T03:23:38.008Z,7.50
2023-02-13T03:26:33.293Z,7.30
2023-02-13T03:29:36.152Z,7.30
2023-02-13T03:32:29.320Z,7.60
2023-02-13T03:35:33.684Z,7.80
2023-02-13T03:38:09.605Z,7.80
2023-02-13T03:41:04.883Z,7.70
2023-02-13T03:43:56.182Z,7.70
2023-02-13T03:46:26.090Z,7.60
2023-02-13T03:49:13.551Z,7.80
2023-02-13T03:51:55.861Z,7.60
2023-02-13T03:54:58.946Z,7.70
2023-02-13T03:57:46.227Z,7.50
2023-02-13T04:00:16.515Z,7.60
2023-02-13T04:02:57.866Z,7.50
2023-02-13T04:05:28.322Z,7.70
2023-02-13T04:07:55.514Z,7.60
2023-02-13T04:10:23.591Z,7.60
2023-02-13T04:13:21.333Z,7.70
2023-02-13T04:16:01.855Z,7.60
2023-02-13T04:18:32.188Z,7.50
2023-02-13T04:21:09.061Z,7.30
2023-02-13T04:23:37.074Z,7.00
2023-02-13T04:26:09.194Z,7.10
2023-02-13T04:28:36.387Z,7.10
2023-02-13T04:31:03.266Z,6.90
2023-02-13T04:33:30.508Z,6.90
2023-02-13T04:35:57.301Z,7.10
2023-02-13T04:38:24.074Z,7.10
2023-02-13T04:40:51.263Z,7.10
2023-02-13T04:43:18.051Z,7.10
2023-02-13T04:45:51.744Z,7.20
2023-02-13T04:48:18.587Z,7.10
2023-02-13T04:50:45.738Z,7.10
2023-02-13T04:53:12.975Z,7.70
2023-02-13T04:55:39.761Z,7.10
2023-02-13T04:58:06.617Z,7.30
2023-02-13T05:00:33.442Z,7.30
2023-02-13T05:03:12.304Z,7.40
2023-02-13T05:05:40.424Z,7.40
2023-02-13T05:08:08.991Z,7.40
2023-02-13T05:10:35.868Z,7.10
2023-02-13T05:13:03.693Z,7.00
2023-02-13T05:15:30.481Z,7.10
2023-02-13T05:17:57.668Z,7.00
2023-02-13T05:20:24.435Z,7.00
2023-02-13T05:23:12.152Z,7.00
2023-02-13T05:25:41.507Z,7.60
2023-02-13T05:28:27.845Z,6.80
2023-02-13T05:30:55.204Z,6.80
2023-02-13T05:33:22.163Z,6.90
2023-02-13T05:35:48.954Z,6.90
2023-02-13T05:38:16.146Z,6.80
2023-02-13T05:40:42.953Z,6.80
2023-02-13T05:43:10.094Z,6.80
2023-02-13T05:45:36.829Z,6.80
2023-02-13T05:48:03.716Z,6.20
2023-02-13T05:50:30.551Z,6.50
2023-02-13T05:52:57.402Z,6.50
2023-02-13T05:55:24.533Z,6.60
2023-02-13T05:57:56.392Z,6.60
2023-02-13T06:00:23.403Z,6.70
2023-02-13T06:02:50.197Z,6.90
2023-02-13T06:05:16.994Z,7.10
2023-02-13T06:07:43.731Z,7.20
2023-02-13T06:10:11.157Z,7.30
2023-02-13T06:12:38.171Z,7.30
2023-02-13T06:15:05.902Z,7.10
2023-02-13T06:17:33.025Z,7.40
2023-02-13T06:19:59.759Z,7.30
2023-02-13T06:22:26.585Z,7.30
2023-02-13T06:24:53.306Z,7.30
2023-02-13T06:27:20.561Z,7.50
2023-02-13T06:29:47.855Z,7.50
2023-02-13T06:32:14.618Z,7.50
2023-02-13T06:34:41.416Z,7.70
2023-02-13T06:37:08.228Z,7.60
2023-02-13T06:39:35.587Z,7.60
2023-02-13T06:44:29.870Z,7.50
2023-02-13T06:46:57.119Z,7.60
2023-02-13T06:49:23.860Z,7.60
2023-02-13T06:51:51.001Z,7.90
2023-02-13T06:54:17.734Z,7.50
2023-02-13T06:56:44.502Z,7.50
2023-02-13T06:59:11.646Z,7.40
2023-02-13T07:01:38.373Z,7.50
2023-02-13T07:04:05.453Z,7.90
2023-02-13T07:06:33.537Z,7.50
2023-02-13T07:09:03.472Z,7.50
2023-02-13T07:11:30.680Z,7.70
2023-02-13T07:13:57.587Z,7.70
2023-02-13T07:16:24.899Z,7.80
2023-02-13T07:18:51.658Z,7.70
2023-02-13T07:21:18.420Z,7.50
2023-02-13T07:23:45.136Z,7.60
2023-02-13T07:26:11.895Z,8.70
2023-02-13T07:28:38.745Z,7.80
2023-02-13T07:31:06.956Z,7.50
2023-02-13T07:33:36.067Z,8.60
2023-02-13T07:36:05.871Z,7.60
2023-02-13T07:38:33.075Z,7.70
2023-02-13T07:41:00.795Z,7.70
2023-02-13T07:43:28.370Z,7.60
2023-02-13T07:45:59.808Z,7.80
2023-02-13T07:51:05.897Z,8.20
2023-02-13T07:53:33.221Z,8.10
2023-02-13T07:58:27.961Z,7.90
2023-02-13T08:00:54.701Z,7.90
2023-02-13T08:03:21.486Z,8.00
2023-02-13T08:05:49.831Z,7.80
2023-02-13T08:08:17.189Z,7.50
2023-02-13T08:11:03.026Z,7.70
2023-02-13T08:13:29.906Z,7.80
2023-02-13T08:15:57.344Z,7.80
2023-02-13T08:18:24.278Z,10.80
2023-02-13T08:20:51.118Z,8.20
2023-02-13T08:23:17.986Z,7.50
2023-02-13T08:25:45.405Z,7.60
2023-02-13T08:30:40.433Z,7.70
2023-02-13T08:33:07.232Z,7.50
2023-02-13T08:35:34.048Z,7.60
2023-02-13T08:38:05.172Z,7.40
2023-02-13T08:40:32.909Z,7.40
2023-02-13T08:43:01.853Z,7.50
2023-02-13T08:45:29.108Z,7.50
2023-02-13T08:47:59.983Z,7.30
2023-02-13T08:50:27.906Z,7.40
2023-02-13T08:55:22.347Z,7.50
2023-02-13T09:07:38.508Z,7.30
2023-02-13T09:10:05.840Z,7.30
2023-02-13T09:12:32.928Z,7.10
2023-02-13T09:15:00.102Z,7.20
2023-02-13T09:17:26.909Z,7.20
2023-02-13T09:19:53.696Z,7.30
2023-02-13T09:22:20.449Z,7.40
2023-02-13T09:29:42.051Z,7.40
2023-02-13T09:34:36.459Z,7.40
2023-02-13T09:39:30.742Z,7.40
2023-02-13T09:41:58.975Z,7.40
2023-02-13T09:57:08.966Z,8.20
2023-02-13T09:59:40.826Z,8.20
2023-02-13T10:02:49.348Z,8.30
2023-02-13T10:05:40.668Z,8.10
2023-02-13T10:08:16.493Z,8.40
2023-02-13T10:11:12.498Z,8.30
2023-02-13T10:13:45.307Z,8.30
2023-02-13T10:16:25.127Z,8.30
2023-02-13T10:18:58.201Z,8.30
2023-02-13T10:21:33.239Z,8.40
2023-02-13T10:24:08.224Z,8.30
2023-02-13T10:26:45.959Z,8.40
2023-02-13T10:32:06.031Z,8.90
2023-02-13T10:34:39.247Z,9.00
2023-02-13T10:37:17.387Z,9.00
2023-02-13T10:39:46.933Z,9.10
2023-02-13T10:42:26.721Z,9.10
2023-02-13T10:44:56.755Z,9.20
2023-02-13T10:47:27.575Z,9.20
2023-02-13T10:53:05.086Z,9.00
2023-02-13T10:55:51.444Z,9.40
2023-02-13T10:58:45.511Z,9.10
2023-02-13T11:01:48.730Z,9.00
2023-02-13T11:04:19.005Z,8.90
2023-02-13T11:06:57.832Z,8.80
2023-02-13T11:11:53.164Z,8.50
2023-02-13T11:14:22.911Z,8.50
2023-02-13T11:16:54.631Z,8.60
2023-02-13T11:19:46.945Z,8.60
2023-02-13T11:22:25.273Z,8.50
2023-02-13T11:24:59.247Z,8.40
2023-02-13T11:27:32.230Z,8.50
2023-02-13T11:30:02.285Z,8.50
2023-02-13T11:32:34.098Z,8.60
2023-02-13T11:35:28.736Z,8.60
2023-02-13T11:38:11.716Z,8.60
2023-02-13T11:40:39.301Z,8.50
2023-02-13T11:43:07.787Z,8.40
2023-02-13T11:48:15.453Z,8.50
2023-02-13T11:50:44.450Z,8.20
2023-02-13T11:53:23.197Z,8.30
2023-02-13T11:56:09.351Z,8.20
2023-02-13T11:58:37.201Z,8.20
2023-02-13T12:01:24.349Z,8.20
2023-02-13T12:04:16.761Z,8.40
2023-02-13T12:07:12.966Z,8.20
2023-02-13T12:09:41.653Z,8.20
2023-02-13T12:12:23.408Z,8.20
2023-02-13T12:14:51.060Z,8.10
2023-02-13T12:17:31.360Z,8.20
2023-02-13T12:19:59.790Z,8.30
2023-02-13T12:22:32.754Z,8.50
2023-02-13T12:25:06.267Z,8.30
2023-02-13T12:27:49.812Z,8.30
2023-02-13T12:30:49.941Z,7.90
2023-02-13T12:33:44.755Z,7.90
2023-02-13T12:36:29.559Z,7.90
2023-02-13T12:39:02.185Z,8.00
2023-02-13T12:41:47.934Z,7.90
2023-02-13T12:44:34.714Z,8.00
2023-02-13T12:47:07.066Z,8.00
2023-02-13T12:52:34.287Z,8.10
2023-02-13T12:55:27.995Z,8.00
2023-02-13T12:58:00.593Z,8.00
2023-02-13T13:01:07.861Z,8.00
2023-02-13T13:06:27.133Z,8.10
2023-02-13T13:11:59.450Z,8.00
2023-02-13T13:14:39.251Z,8.20
2023-02-13T13:17:21.932Z,8.30
2023-02-13T13:20:30.558Z,8.50
2023-02-13T13:23:10.446Z,8.30
2023-02-13T13:26:03.512Z,8.50
2023-02-13T13:28:38.200Z,8.40
2023-02-13T13:33:34.712Z,8.30
2023-02-13T13:38:52.435Z,8.20
2023-02-13T13:41:33.215Z,8.20
2023-02-13T13:44:18.905Z,8.10
2023-02-13T13:46:54.532Z,8.10
2023-02-13T13:49:52.104Z,8.10
2023-02-13T13:52:22.557Z,8.00
2023-02-13T13:57:35.759Z,8.00
2023-02-13T14:00:08.791Z,8.10
2023-02-13T14:03:12.806Z,8.10
2023-02-13T14:06:05.349Z,8.10
2023-02-13T14:08:41.688Z,7.90
2023-02-13T14:11:40.869Z,8.00
2023-02-13T14:14:30.949Z,7.80
2023-02-13T14:17:02.237Z,7.70
2023-02-13T14:22:24.535Z,7.00
2023-02-13T14:24:57.438Z,7.90
2023-02-13T14:27:29.804Z,7.80
2023-02-13T14:29:57.213Z,7.80
2023-02-13T14:32:39.715Z,7.50
2023-02-13T14:35:20.821Z,7.70
2023-02-13T14:38:01.538Z,7.80
2023-02-13T14:40:40.080Z,8.10
2023-02-13T14:43:26.285Z,7.80
2023-02-13T14:46:11.882Z,7.80
2023-02-13T14:49:17.404Z,7.90
2023-02-13T14:51:53.418Z,7.80
2023-02-13T14:54:31.905Z,7.80
2023-02-13T14:57:14.912Z,7.80
2023-02-13T14:59:47.605Z,7.70
2023-02-13T15:05:03.976Z,7.70
2023-02-13T15:07:35.535Z,7.70
2023-02-13T15:10:06.405Z,7.60
2023-02-13T15:12:36.053Z,7.70
2023-02-13T15:15:22.564Z,7.70
2023-02-13T15:17:49.363Z,7.50
2023-02-13T15:20:26.224Z,7.30
2023-02-13T15:25:29.444Z,7.60
2023-02-13T15:30:32.067Z,7.60
2023-02-13T15:35:29.530Z,7.70
2023-02-13T15:40:31.208Z,7.90
2023-02-13T15:42:59.568Z,7.60
2023-02-13T15:45:28.946Z,7.70
2023-02-13T15:47:56.755Z,7.60
2023-02-13T15:50:35.341Z,7.80
2023-02-13T15:53:05.406Z,7.70
2023-02-13T15:55:36.845Z,7.70
2023-02-13T16:00:37.642Z,7.80
2023-02-13T16:03:09.021Z,7.80
2023-02-13T16:05:41.706Z,7.70
2023-02-13T16:08:30.898Z,7.70
2023-02-13T16:11:16.286Z,8.00
2023-02-13T16:14:17.634Z,7.90
2023-02-13T16:17:02.489Z,7.70
2023-02-13T16:19:37.772Z,7.80
2023-02-13T16:22:30.111Z,7.40
2023-02-13T16:25:12.070Z,7.50
2023-02-13T16:27:47.178Z,7.50
2023-02-13T16:30:25.847Z,7.30
2023-02-13T16:33:09.086Z,7.60
2023-02-13T16:35:38.310Z,8.00
2023-02-13T16:43:39.721Z,8.10
2023-02-13T16:46:15.685Z,7.90
2023-02-13T16:48:44.408Z,8.10
2023-02-13T16:51:12.304Z,8.00
2023-02-13T16:53:40.820Z,7.60
2023-02-13T16:56:12.290Z,8.00
2023-02-13T16:58:39.662Z,7.70
2023-02-13T17:06:04.247Z,7.90
2023-02-13T17:08:32.151Z,7.30
2023-02-13T17:11:08.554Z,7.70
2023-02-13T17:13:35.894Z,7.60
2023-02-13T17:16:02.739Z,7.70
2023-02-13T17:20:57.683Z,7.60
2023-02-13T17:23:25.808Z,7.20
2023-02-13T17:25:53.933Z,7.20
2023-02-13T17:28:24.388Z,6.90
2023-02-13T17:30:54.513Z,7.00
2023-02-13T17:33:27.505Z,7.10
2023-02-13T17:35:55.163Z,7.20
2023-02-13T17:38:22.340Z,7.60
2023-02-13T17:40:49.374Z,7.00
2023-02-13T17:43:19.002Z,7.00
2023-02-13T17:50:41.652Z,7.20
2023-02-13T17:53:24.109Z,6.70
2023-02-13T17:55:51.593Z,6.60
2023-02-13T18:05:41.540Z,5.80
2023-02-13T18:08:08.992Z,6.90
2023-02-13T18:10:37.261Z,6.80
2023-02-13T18:13:05.311Z,6.80
2023-02-13T18:15:39.418Z,6.60
2023-02-13T18:18:06.882Z,6.90
2023-02-13T18:20:34.912Z,7.00
2023-02-13T18:23:02.263Z,6.70
2023-02-13T18:27:56.411Z,6.80
2023-02-13T18:30:23.318Z,6.70
2023-02-13T18:32:55.930Z,6.90
2023-02-13T18:35:23.750Z,6.80
2023-02-13T18:37:53.160Z,6.80
2023-02-13T18:42:51.271Z,7.00
2023-02-13T18:45:18.230Z,7.20
2023-02-13T18:47:45.005Z,7.20
2023-02-13T18:50:11.983Z,7.00
2023-02-13T19:07:27.100Z,7.10
2023-02-13T19:09:53.902Z,6.90
2023-02-13T19:17:15.578Z,6.50
2023-02-13T19:19:45.562Z,6.80
2023-02-13T19:24:41.534Z,6.80
2023-02-13T19:27:08.912Z,6.80
2023-02-13T19:29:35.678Z,6.50
2023-02-13T19:32:02.527Z,6.90
2023-02-13T19:34:30.053Z,7.20
2023-02-13T19:36:57.275Z,7.30
2023-02-13T19:41:52.005Z,7.10
2023-02-13T19:49:13.911Z,6.60
2023-02-13T19:54:11.304Z,6.60
2023-02-13T19:56:39.310Z,6.60
2023-02-13T19:59:07.530Z,6.60
2023-02-13T20:01:34.490Z,6.70
2023-02-13T20:04:01.742Z,7.10
2023-02-13T20:06:36.175Z,6.60
2023-02-13T20:09:12.407Z,6.80
2023-02-13T20:11:43.216Z,7.00
2023-02-13T20:14:14.831Z,7.10
2023-02-13T20:16:43.028Z,7.10
2023-02-13T20:19:11.750Z,6.80
2023-02-13T20:21:41.847Z,7.10
2023-02-13T20:24:09.484Z,6.50
2023-02-13T20:26:37.051Z,7.00
2023-02-13T20:31:34.016Z,6.60
2023-02-13T20:36:30.642Z,7.00
2023-02-13T20:39:00.627Z,6.80
2023-02-13T20:41:31.127Z,6.80
2023-02-13T20:43:59.632Z,6.90
2023-02-13T20:46:26.734Z,6.60
2023-02-13T20:48:53.556Z,6.70
2023-02-13T20:53:47.891Z,6.90
2023-02-13T20:56:17.362Z,6.90
2023-02-13T20:58:45.874Z,6.90
2023-02-13T21:01:17.117Z,6.60
2023-02-13T21:03:45.014Z,6.80
2023-02-13T21:06:12.546Z,6.80
2023-02-13T21:11:08.450Z,6.80
2023-02-13T21:13:36.193Z,6.70
2023-02-13T21:16:05.310Z,6.40
2023-02-13T21:21:00.258Z,6.70
2023-02-13T21:23:27.352Z,6.70
2023-02-13T21:28:22.357Z,6.90
2023-02-13T21:43:08.177Z,6.60
2023-02-13T21:45:35.344Z,6.20
2023-02-13T21:48:02.530Z,6.40
2023-02-13T21:57:52.182Z,6.50
2023-02-13T22:00:19.046Z,6.90
2023-02-13T22:10:26.729Z,6.10
2023-02-13T22:12:53.981Z,5.90
2023-02-13T22:15:20.806Z,6.60
2023-02-13T22:17:47.578Z,6.60
2023-02-13T22:25:09.866Z,6.10
2023-02-13T22:27:36.704Z,6.10
2023-02-13T22:30:05.058Z,6.50
2023-02-13T22:32:32.190Z,6.60
2023-02-13T22:34:58.950Z,6.30
2023-02-13T22:42:20.453Z,6.10
2023-02-13T22:44:47.432Z,6.00
2023-02-13T22:47:14.212Z,6.40
2023-02-13T22:49:41.308Z,6.70
2023-02-13T22:52:08.496Z,5.90
2023-02-13T22:54:35.282Z,6.00
2023-02-13T22:57:02.523Z,6.40
2023-02-13T22:59:30.589Z,6.60
2023-02-13T23:06:52.229Z,6.90
2023-02-13T23:14:32.672Z,6.10
2023-02-13T23:19:46.153Z,6.30
2023-02-13T23:24:40.969Z,6.20
2023-02-13T23:29:35.394Z,6.20
2023-02-13T23:32:02.259Z,6.30
2023-02-13T23:34:29.097Z,6.30
2023-02-13T23:36:56.439Z,6.40
2023-02-13T23:39:24.293Z,6.30
2023-02-13T23:41:51.408Z,6.60
2023-02-13T23:44:18.257Z,6.20
2023-02-13T23:54:08.332Z,6.10
2023-02-13T23:56:35.145Z,5.90
2023-02-13T23:59:01.911Z,5.80
